createdAt,value
2022-10-22T00:01:49.128Z,14.05
2022-10-22T00:04:16.012Z,14.02
2022-10-22T00:06:45.056Z,13.53
2022-10-22T00:09:13.166Z,13.96
2022-10-22T00:11:40.132Z,13.81
2022-10-22T00:14:07.098Z,13.98
2022-10-22T00:16:34.091Z,13.94
2022-10-22T00:19:01.035Z,13.92
2022-10-22T00:21:31.053Z,14.10
2022-10-22T00:23:57.977Z,14.26
2022-10-22T00:26:24.960Z,13.75
2022-10-22T00:28:51.990Z,13.91
2022-10-22T00:31:20.196Z,14.22
2022-10-22T00:33:48.130Z,13.93
2022-10-22T00:36:16.131Z,14.22
2022-10-22T00:38:43.115Z,13.68
2022-10-22T00:41:10.209Z,14.03
2022-10-22T00:43:58.441Z,13.97
2022-10-22T00:46:25.386Z,13.82
2022-10-22T00:48:52.629Z,14.14
2022-10-22T00:51:20.037Z,13.69
2022-10-22T00:53:56.351Z,13.78
2022-10-22T00:56:24.283Z,13.95
2022-10-22T00:58:58.469Z,14.13
2022-10-22T01:04:05.396Z,13.75
2022-10-22T01:06:33.526Z,13.99
2022-10-22T01:09:10.122Z,13.96
2022-10-22T01:11:42.996Z,14.12
2022-10-22T01:14:14.522Z,14.12
2022-10-22T01:16:48.384Z,13.33
2022-10-22T01:19:46.769Z,14.12
2022-10-22T01:22:20.585Z,13.55
2022-10-22T01:24:56.637Z,13.92
2022-10-22T01:27:48.158Z,13.97
2022-10-22T01:30:15.324Z,13.41
2022-10-22T01:32:48.447Z,14.07
2022-10-22T01:35:19.864Z,13.91
2022-10-22T01:37:52.969Z,12.88
2022-10-22T01:40:20.361Z,14.07
2022-10-22T01:43:02.525Z,13.76
2022-10-22T01:45:31.027Z,14.03
2022-10-22T01:48:51.806Z,14.02
2022-10-22T01:51:25.495Z,13.49
2022-10-22T01:54:03.894Z,14.02
2022-10-22T01:56:43.848Z,14.02
2022-10-22T01:59:19.114Z,13.65
2022-10-22T02:01:49.825Z,13.63
2022-10-22T02:04:26.294Z,13.49
2022-10-22T02:06:53.406Z,13.52
2022-10-22T02:09:20.664Z,13.32
2022-10-22T02:11:48.013Z,13.98
2022-10-22T02:14:15.047Z,13.34
2022-10-22T02:16:45.841Z,13.99
2022-10-22T02:19:36.461Z,13.96
2022-10-22T02:22:03.753Z,13.49
2022-10-22T02:24:30.807Z,13.90
2022-10-22T02:27:09.826Z,13.89
2022-10-22T02:29:44.120Z,13.86
2022-10-22T02:32:12.280Z,13.69
2022-10-22T02:34:39.216Z,13.44
2022-10-22T02:37:06.263Z,13.20
2022-10-22T02:39:33.215Z,13.81
2022-10-22T02:42:02.220Z,13.51
2022-10-22T02:44:31.934Z,13.28
2022-10-22T02:47:02.320Z,13.83
2022-10-22T02:49:29.482Z,13.83
2022-10-22T02:51:56.617Z,12.97
2022-10-22T02:54:23.684Z,13.51
2022-10-22T02:56:50.623Z,13.57
2022-10-22T02:59:20.402Z,13.25
2022-10-22T03:01:47.785Z,13.87
2022-10-22T03:04:14.731Z,13.89
2022-10-22T03:06:44.108Z,13.12
2022-10-22T03:09:11.308Z,13.89
2022-10-22T03:11:38.201Z,13.56
2022-10-22T03:14:05.723Z,13.10
2022-10-22T03:16:32.706Z,13.58
2022-10-22T03:19:02.088Z,13.78
2022-10-22T03:21:34.941Z,13.76
2022-10-22T03:24:06.486Z,13.04
2022-10-22T03:26:33.471Z,13.69
2022-10-22T03:29:01.036Z,13.49
2022-10-22T03:31:27.964Z,13.50
2022-10-22T03:33:55.074Z,13.59
2022-10-22T03:36:21.972Z,13.21
2022-10-22T03:38:48.846Z,13.58
2022-10-22T03:41:16.053Z,13.21
2022-10-22T03:43:43.289Z,13.04
2022-10-22T03:46:11.558Z,13.56
2022-10-22T03:48:38.424Z,13.21
2022-10-22T03:51:05.468Z,13.29
2022-10-22T03:53:32.362Z,13.56
2022-10-22T03:55:59.247Z,12.24
2022-10-22T03:58:26.329Z,13.17
2022-10-22T04:00:53.263Z,13.22
2022-10-22T04:03:20.227Z,13.02
2022-10-22T04:05:47.693Z,13.65
2022-10-22T04:08:14.577Z,13.54
2022-10-22T04:10:41.455Z,13.68
2022-10-22T04:13:08.516Z,13.70
2022-10-22T04:15:35.509Z,13.71
2022-10-22T04:18:02.429Z,13.27
2022-10-22T04:20:29.523Z,13.62
2022-10-22T04:22:56.490Z,13.73
2022-10-22T04:25:23.443Z,13.59
2022-10-22T04:27:50.563Z,13.76
2022-10-22T04:30:18.169Z,13.56
2022-10-22T04:32:45.081Z,13.76
2022-10-22T04:35:12.187Z,12.89
2022-10-22T04:37:39.536Z,13.49
2022-10-22T04:40:07.420Z,13.29
2022-10-22T04:42:34.409Z,13.23
2022-10-22T04:45:01.442Z,13.60
2022-10-22T04:47:28.421Z,13.69
2022-10-22T04:49:55.425Z,13.60
2022-10-22T04:52:22.344Z,13.28
2022-10-22T04:54:49.265Z,13.82
2022-10-22T04:57:17.626Z,13.46
2022-10-22T04:59:44.595Z,13.21
2022-10-22T05:02:11.558Z,13.84
2022-10-22T05:04:38.743Z,13.53
2022-10-22T05:07:05.738Z,12.83
2022-10-22T05:09:32.633Z,12.99
2022-10-22T05:11:59.511Z,13.42
2022-10-22T05:14:26.481Z,13.35
2022-10-22T05:16:53.834Z,13.70
2022-10-22T05:19:25.637Z,13.39
2022-10-22T05:21:53.636Z,13.87
2022-10-22T05:24:20.646Z,13.61
2022-10-22T05:26:51.662Z,13.64
2022-10-22T05:29:18.852Z,13.75
2022-10-22T05:31:45.786Z,13.89
2022-10-22T05:34:12.987Z,13.52
2022-10-22T05:36:40.058Z,13.67
2022-10-22T05:39:07.360Z,13.67
2022-10-22T05:41:35.800Z,13.52
2022-10-22T05:44:02.795Z,13.87
2022-10-22T05:46:30.841Z,13.87
2022-10-22T05:49:02.617Z,13.88
2022-10-22T05:51:32.266Z,12.91
2022-10-22T05:54:02.284Z,13.81
2022-10-22T05:56:30.613Z,13.88
2022-10-22T05:58:57.938Z,13.86
2022-10-22T06:01:30.229Z,13.45
2022-10-22T06:03:59.492Z,13.38
2022-10-22T06:06:29.202Z,13.87
2022-10-22T06:08:56.292Z,13.58
2022-10-22T06:11:23.745Z,13.23
2022-10-22T06:13:51.033Z,13.89
2022-10-22T06:16:18.405Z,13.48
2022-10-22T06:18:45.346Z,13.56
2022-10-22T06:21:14.682Z,13.75
2022-10-22T06:23:43.811Z,13.71
2022-10-22T06:26:11.457Z,13.20
2022-10-22T06:28:38.530Z,13.21
2022-10-22T06:31:05.850Z,13.74
2022-10-22T06:33:34.249Z,13.49
2022-10-22T06:36:08.680Z,13.87
2022-10-22T06:38:35.591Z,13.39
2022-10-22T06:41:04.237Z,13.98
2022-10-22T06:43:31.561Z,13.79
2022-10-22T06:46:07.504Z,13.90
2022-10-22T06:48:36.172Z,13.07
2022-10-22T06:51:04.155Z,13.67
2022-10-22T06:53:31.048Z,13.48
2022-10-22T06:55:58.566Z,13.61
2022-10-22T06:58:25.520Z,14.01
2022-10-22T07:01:02.445Z,13.76
2022-10-22T07:03:29.420Z,13.49
2022-10-22T07:05:59.629Z,14.02
2022-10-22T07:08:26.770Z,13.64
2022-10-22T07:10:53.670Z,13.83
2022-10-22T07:13:20.605Z,13.91
2022-10-22T07:15:53.652Z,13.62
2022-10-22T07:18:20.990Z,13.50
2022-10-22T07:20:48.806Z,13.46
2022-10-22T07:23:18.550Z,13.85
2022-10-22T07:25:45.487Z,14.04
2022-10-22T07:28:12.475Z,13.74
2022-10-22T07:30:39.394Z,13.38
2022-10-22T07:33:09.485Z,13.23
2022-10-22T07:35:37.970Z,13.78
2022-10-22T07:38:05.756Z,13.31
2022-10-22T07:40:32.903Z,13.79
2022-10-22T07:42:59.887Z,12.99
2022-10-22T07:45:26.874Z,13.98
2022-10-22T07:47:53.791Z,13.86
2022-10-22T07:50:20.713Z,14.06
2022-10-22T07:52:51.012Z,13.89
2022-10-22T07:55:19.111Z,13.88
2022-10-22T07:57:46.078Z,13.98
2022-10-22T08:00:13.979Z,13.84
2022-10-22T08:02:41.061Z,14.09
2022-10-22T08:05:08.609Z,14.46
2022-10-22T08:07:35.688Z,14.21
2022-10-22T08:10:02.584Z,14.57
2022-10-22T08:12:29.496Z,14.27
2022-10-22T08:14:56.594Z,14.13
2022-10-22T08:17:23.595Z,14.19
2022-10-22T08:19:50.538Z,14.71
2022-10-22T08:22:20.323Z,14.24
2022-10-22T08:24:47.811Z,14.76
2022-10-22T08:27:14.903Z,14.38
2022-10-22T08:29:41.953Z,14.79
2022-10-22T08:32:08.954Z,14.50
2022-10-22T08:34:36.085Z,14.82
2022-10-22T08:37:03.183Z,13.84
2022-10-22T08:39:31.530Z,14.55
2022-10-22T08:42:17.121Z,14.87
2022-10-22T08:44:59.650Z,14.87
2022-10-22T08:48:02.195Z,14.87
2022-10-22T08:50:40.232Z,14.71
2022-10-22T08:53:13.144Z,14.22
2022-10-22T08:55:40.054Z,14.20
2022-10-22T08:58:21.797Z,14.41
2022-10-22T09:00:59.925Z,14.66
2022-10-22T09:03:42.446Z,14.99
2022-10-22T09:06:11.594Z,15.02
2022-10-22T09:08:44.063Z,14.59
2022-10-22T09:11:13.825Z,15.10
2022-10-22T09:13:41.744Z,14.57
2022-10-22T09:16:20.082Z,15.26
2022-10-22T09:18:59.273Z,15.30
2022-10-22T09:21:47.001Z,15.05
2022-10-22T09:24:33.244Z,15.42
2022-10-22T09:27:01.884Z,15.13
2022-10-22T09:29:33.270Z,15.61
2022-10-22T09:32:00.641Z,15.14
2022-10-22T09:34:28.958Z,15.66
2022-10-22T09:37:04.759Z,15.47
2022-10-22T09:39:44.022Z,14.77
2022-10-22T09:42:11.962Z,14.99
2022-10-22T09:44:38.987Z,14.97
2022-10-22T09:47:42.908Z,15.61
2022-10-22T09:50:41.884Z,15.58
2022-10-22T09:53:25.909Z,15.13
2022-10-22T09:58:22.830Z,14.88
2022-10-22T10:00:55.934Z,14.96
2022-10-22T10:03:24.789Z,15.03
2022-10-22T10:06:01.406Z,15.15
2022-10-22T10:08:32.237Z,15.48
2022-10-22T10:11:06.494Z,14.84
2022-10-22T10:13:39.485Z,15.50
2022-10-22T10:16:30.740Z,15.30
2022-10-22T10:19:10.606Z,15.14
2022-10-22T10:21:52.201Z,15.53
2022-10-22T10:24:24.500Z,14.78
2022-10-22T10:27:19.836Z,15.48
2022-10-22T10:29:50.242Z,14.81
2022-10-22T10:32:32.426Z,15.64
2022-10-22T10:35:16.664Z,15.67
2022-10-22T10:37:50.054Z,15.31
2022-10-22T10:40:42.849Z,15.81
2022-10-22T10:43:16.022Z,15.90
2022-10-22T10:45:59.245Z,16.00
2022-10-22T10:48:43.438Z,15.57
2022-10-22T10:51:50.445Z,16.19
2022-10-22T10:54:18.004Z,16.31
2022-10-22T10:56:59.116Z,15.96
2022-10-22T10:59:51.319Z,16.15
2022-10-22T11:02:27.961Z,16.54
2022-10-22T11:05:08.936Z,16.59
2022-10-22T11:07:41.054Z,16.65
2022-10-22T11:10:22.465Z,16.58
2022-10-22T11:12:51.512Z,15.67
2022-10-22T11:15:28.997Z,16.75
2022-10-22T11:17:58.135Z,16.62
2022-10-22T11:21:03.794Z,16.80
2022-10-22T11:23:36.315Z,16.15
2022-10-22T11:26:03.287Z,16.33
2022-10-22T11:28:34.260Z,16.78
2022-10-22T11:31:03.613Z,16.38
2022-10-22T11:33:42.757Z,15.87
2022-10-22T11:36:09.680Z,15.67
2022-10-22T11:38:36.876Z,16.72
2022-10-22T11:41:07.597Z,16.22
2022-10-22T11:43:48.124Z,16.50
2022-10-22T11:46:26.369Z,16.67
2022-10-22T11:49:24.478Z,16.29
2022-10-22T11:51:52.713Z,16.47
2022-10-22T11:54:31.942Z,16.32
2022-10-22T11:57:17.005Z,16.67
2022-10-22T11:59:49.749Z,16.72
2022-10-22T12:02:28.919Z,16.79
2022-10-22T12:04:56.339Z,16.54
2022-10-22T12:07:52.189Z,16.88
2022-10-22T12:10:20.691Z,16.95
2022-10-22T12:13:12.435Z,17.01
2022-10-22T12:15:49.084Z,16.75
2022-10-22T12:18:17.432Z,16.42
2022-10-22T12:20:44.554Z,17.12
2022-10-22T12:23:12.556Z,17.13
2022-10-22T12:25:40.134Z,17.33
2022-10-22T12:28:13.003Z,16.77
2022-10-22T12:30:41.571Z,17.38
2022-10-22T12:33:20.064Z,17.37
2022-10-22T12:35:49.200Z,17.27
2022-10-22T12:38:21.704Z,17.13
2022-10-22T12:40:51.481Z,16.68
2022-10-22T12:43:27.579Z,17.44
2022-10-22T12:45:54.941Z,16.80
2022-10-22T12:48:25.732Z,17.49
2022-10-22T12:50:58.415Z,17.52
2022-10-22T12:53:29.591Z,16.71
2022-10-22T12:55:58.049Z,17.56
2022-10-22T12:58:32.163Z,17.28
2022-10-22T13:01:02.293Z,16.99
2022-10-22T13:03:39.864Z,17.20
2022-10-22T13:06:19.070Z,17.57
2022-10-22T13:09:07.643Z,16.56
2022-10-22T13:11:39.117Z,17.45
2022-10-22T13:14:18.571Z,17.60
2022-10-22T13:17:24.149Z,17.16
2022-10-22T13:20:02.333Z,17.60
2022-10-22T13:22:36.444Z,17.61
2022-10-22T13:25:19.237Z,17.64
2022-10-22T13:27:48.073Z,17.39
2022-10-22T13:30:21.209Z,17.52
2022-10-22T13:32:52.991Z,17.52
2022-10-22T13:35:21.992Z,17.71
2022-10-22T13:37:49.063Z,17.21
2022-10-22T13:40:17.527Z,17.49
2022-10-22T13:42:48.122Z,17.59
2022-10-22T13:45:15.093Z,17.44
2022-10-22T13:47:43.385Z,17.74
2022-10-22T13:50:15.724Z,17.66
2022-10-22T13:52:44.963Z,17.57
2022-10-22T13:55:22.488Z,17.92
2022-10-22T13:57:49.734Z,17.75
2022-10-22T14:00:21.036Z,17.50
2022-10-22T14:02:50.320Z,17.63
2022-10-22T14:05:20.799Z,17.84
2022-10-22T14:07:48.453Z,17.98
2022-10-22T14:10:23.612Z,17.41
2022-10-22T14:12:53.483Z,17.99
2022-10-22T14:15:29.276Z,17.81
2022-10-22T14:17:58.983Z,17.69
2022-10-22T14:20:34.548Z,17.60
2022-10-22T14:23:15.012Z,17.76
2022-10-22T14:25:42.866Z,17.76
2022-10-22T14:28:11.543Z,17.46
2022-10-22T14:30:39.396Z,17.74
2022-10-22T14:33:33.104Z,18.00
2022-10-22T14:36:02.214Z,17.96
2022-10-22T14:38:35.481Z,17.47
2022-10-22T14:41:02.451Z,17.69
2022-10-22T14:43:31.490Z,18.02
2022-10-22T14:45:59.122Z,18.03
2022-10-22T14:48:26.158Z,17.83
2022-10-22T14:50:53.141Z,17.81
2022-10-22T14:53:20.180Z,18.00
2022-10-22T14:55:49.247Z,17.83
2022-10-22T14:58:16.691Z,17.93
2022-10-22T15:00:44.265Z,17.57
2022-10-22T15:03:11.837Z,17.53
2022-10-22T15:05:44.605Z,17.75
2022-10-22T15:08:13.282Z,17.24
2022-10-22T15:10:40.507Z,17.59
2022-10-22T15:13:07.660Z,17.50
2022-10-22T15:15:39.414Z,16.95
2022-10-22T15:18:07.063Z,17.42
2022-10-22T15:20:33.947Z,17.48
2022-10-22T15:23:00.947Z,17.46
2022-10-22T15:25:28.816Z,17.25
2022-10-22T15:27:59.674Z,17.22
2022-10-22T15:30:32.365Z,17.35
2022-10-22T15:32:59.282Z,16.53
2022-10-22T15:35:28.576Z,17.27
2022-10-22T15:37:55.581Z,16.66
2022-10-22T15:40:22.481Z,17.03
2022-10-22T15:42:49.382Z,17.00
2022-10-22T15:45:19.588Z,16.65
2022-10-22T15:47:50.759Z,16.81
2022-10-22T15:50:18.974Z,17.09
2022-10-22T15:52:45.874Z,16.77
2022-10-22T15:57:40.219Z,16.41
2022-10-22T16:00:08.588Z,16.95
2022-10-22T16:02:35.617Z,15.92
2022-10-22T16:05:02.697Z,16.58
2022-10-22T16:07:30.773Z,16.25
2022-10-22T16:10:00.693Z,16.49
2022-10-22T16:12:27.852Z,16.75
2022-10-22T16:14:54.925Z,16.36
2022-10-22T16:17:22.045Z,16.81
2022-10-22T16:19:48.957Z,16.79
2022-10-22T16:22:15.863Z,16.36
2022-10-22T16:24:43.072Z,16.22
2022-10-22T16:27:10.527Z,16.65
2022-10-22T16:29:38.535Z,16.62
2022-10-22T16:32:05.704Z,16.57
2022-10-22T16:34:32.607Z,16.33
2022-10-22T16:36:59.577Z,16.61
2022-10-22T16:39:26.521Z,16.58
2022-10-22T16:41:53.459Z,16.20
2022-10-22T16:44:23.788Z,16.56
2022-10-22T16:46:50.848Z,16.04
2022-10-22T16:49:18.014Z,15.38
2022-10-22T16:51:44.984Z,16.30
2022-10-22T16:54:12.573Z,16.25
2022-10-22T16:56:39.633Z,15.78
2022-10-22T16:59:06.561Z,15.21
2022-10-22T17:01:37.866Z,15.77
2022-10-22T17:04:06.503Z,15.82
2022-10-22T17:06:33.575Z,15.86
2022-10-22T17:09:00.738Z,15.76
2022-10-22T17:11:30.379Z,15.68
2022-10-22T17:13:57.459Z,15.25
2022-10-22T17:16:25.069Z,15.65
2022-10-22T17:18:53.880Z,15.76
2022-10-22T17:21:20.918Z,15.78
2022-10-22T17:23:48.457Z,15.88
2022-10-22T17:26:21.021Z,15.84
2022-10-22T17:28:48.391Z,15.81
2022-10-22T17:31:26.696Z,15.37
2022-10-22T17:33:54.735Z,15.36
2022-10-22T17:36:22.727Z,15.43
2022-10-22T17:38:54.002Z,15.58
2022-10-22T17:41:23.216Z,15.54
2022-10-22T17:43:50.124Z,15.53
2022-10-22T17:46:25.101Z,15.36
2022-10-22T17:48:59.683Z,15.44
2022-10-22T17:51:27.796Z,15.02
2022-10-22T17:53:54.999Z,15.45
2022-10-22T17:56:23.894Z,15.10
2022-10-22T17:58:51.144Z,15.40
2022-10-22T18:01:32.189Z,15.33
2022-10-22T18:04:04.388Z,15.20
2022-10-22T18:06:32.050Z,15.33
2022-10-22T18:08:59.195Z,15.01
2022-10-22T18:11:27.523Z,14.73
2022-10-22T18:13:56.304Z,15.26
2022-10-22T18:16:23.395Z,15.05
2022-10-22T18:18:54.373Z,15.02
2022-10-22T18:21:22.937Z,14.69
2022-10-22T18:23:50.047Z,14.80
2022-10-22T18:26:20.234Z,15.13
2022-10-22T18:28:49.877Z,14.92
2022-10-22T18:31:21.470Z,15.02
2022-10-22T18:33:48.462Z,14.61
2022-10-22T18:36:19.329Z,14.37
2022-10-22T18:38:54.554Z,14.52
2022-10-22T18:41:21.634Z,14.52
2022-10-22T18:43:52.711Z,14.55
2022-10-22T18:46:19.827Z,14.63
2022-10-22T18:48:47.595Z,14.58
2022-10-22T18:51:14.920Z,14.85
2022-10-22T18:53:44.181Z,14.86
2022-10-22T18:56:13.576Z,14.68
2022-10-22T18:58:41.820Z,14.87
2022-10-22T19:01:23.018Z,14.38
2022-10-22T19:03:50.099Z,13.45
2022-10-22T19:06:19.106Z,14.66
2022-10-22T19:08:49.249Z,14.80
2022-10-22T19:11:18.241Z,14.76
2022-10-22T19:13:45.173Z,14.25
2022-10-22T19:16:17.627Z,14.67
2022-10-22T19:18:44.567Z,14.42
2022-10-22T19:21:11.746Z,14.37
2022-10-22T19:23:38.910Z,14.32
2022-10-22T19:26:10.163Z,13.58
2022-10-22T19:28:37.814Z,13.18
2022-10-22T19:31:06.334Z,13.91
2022-10-22T19:33:34.533Z,13.58
2022-10-22T19:36:08.895Z,14.26
2022-10-22T19:38:38.469Z,14.46
2022-10-22T19:41:14.757Z,14.15
2022-10-22T19:43:42.684Z,14.07
2022-10-22T19:46:09.965Z,14.29
2022-10-22T19:48:37.303Z,14.45
2022-10-22T19:51:08.486Z,14.44
2022-10-22T19:53:36.955Z,14.43
2022-10-22T19:56:06.411Z,14.12
2022-10-22T19:58:33.816Z,14.39
2022-10-22T20:01:08.378Z,13.83
2022-10-22T20:03:36.474Z,14.30
2022-10-22T20:06:04.828Z,14.26
2022-10-22T20:08:34.691Z,14.03
2022-10-22T20:11:02.322Z,14.19
2022-10-22T20:13:29.477Z,14.18
2022-10-22T20:15:56.816Z,13.86
2022-10-22T20:18:23.779Z,13.82
2022-10-22T20:20:50.688Z,14.14
2022-10-22T20:23:18.313Z,14.14
2022-10-22T20:25:47.110Z,14.01
2022-10-22T20:28:14.769Z,13.26
2022-10-22T20:30:42.838Z,13.89
2022-10-22T20:33:09.772Z,14.07
2022-10-22T20:35:37.139Z,13.57
2022-10-22T20:38:04.933Z,14.01
2022-10-22T20:40:34.918Z,14.02
2022-10-22T20:43:02.133Z,13.58
2022-10-22T20:45:29.148Z,13.88
2022-10-22T20:48:02.723Z,13.99
2022-10-22T20:50:32.089Z,13.73
2022-10-22T20:52:59.447Z,13.98
2022-10-22T20:55:26.554Z,13.97
2022-10-22T20:57:53.457Z,13.33
2022-10-22T21:00:20.403Z,13.60
2022-10-22T21:02:50.094Z,13.83
2022-10-22T21:05:17.131Z,13.41
2022-10-22T21:07:44.256Z,13.77
2022-10-22T21:10:11.368Z,13.12
2022-10-22T21:12:41.963Z,13.36
2022-10-22T21:15:12.493Z,13.69
2022-10-22T21:17:40.735Z,13.57
2022-10-22T21:20:08.005Z,13.60
2022-10-22T21:22:34.973Z,13.59
2022-10-22T21:25:05.259Z,13.58
2022-10-22T21:27:32.308Z,13.73
2022-10-22T21:29:59.308Z,13.57
2022-10-22T21:32:28.470Z,12.58
2022-10-22T21:34:55.353Z,13.54
2022-10-22T21:37:23.263Z,13.33
2022-10-22T21:39:50.391Z,13.21
2022-10-22T21:42:18.207Z,13.01
2022-10-22T21:44:45.160Z,13.31
2022-10-22T21:47:12.151Z,13.49
2022-10-22T21:49:39.053Z,13.51
2022-10-22T21:52:07.153Z,13.11
2022-10-22T21:54:37.404Z,12.93
2022-10-22T21:57:04.605Z,13.45
2022-10-22T21:59:32.430Z,13.47
2022-10-22T22:02:04.770Z,13.57
2022-10-22T22:04:32.790Z,13.06
2022-10-22T22:06:59.685Z,12.89
2022-10-22T22:09:26.606Z,13.29
2022-10-22T22:11:53.496Z,13.19
2022-10-22T22:14:20.429Z,13.49
2022-10-22T22:16:48.034Z,13.15
2022-10-22T22:19:14.898Z,13.06
2022-10-22T22:21:41.768Z,13.28
2022-10-22T22:24:09.870Z,13.10
2022-10-22T22:26:36.766Z,13.15
2022-10-22T22:29:03.776Z,13.61
2022-10-22T22:31:34.692Z,12.56
2022-10-22T22:34:10.076Z,13.27
2022-10-22T22:36:42.177Z,13.58
2022-10-22T22:39:12.054Z,13.29
2022-10-22T22:41:39.102Z,12.93
2022-10-22T22:44:06.105Z,13.24
2022-10-22T22:46:32.969Z,13.21
2022-10-22T22:48:59.877Z,13.54
2022-10-22T22:51:26.880Z,13.53
2022-10-22T22:53:53.849Z,13.31
2022-10-22T22:56:23.261Z,13.18
2022-10-22T22:58:50.318Z,12.16
2022-10-22T23:01:21.788Z,13.49
2022-10-22T23:03:53.733Z,13.47
2022-10-22T23:06:20.613Z,12.97
2022-10-22T23:08:49.628Z,12.90
2022-10-22T23:11:16.866Z,12.90
2022-10-22T23:13:43.845Z,13.37
2022-10-22T23:16:15.198Z,13.29
2022-10-22T23:18:42.450Z,13.11
2022-10-22T23:21:16.770Z,12.87
2022-10-22T23:23:52.982Z,12.79
2022-10-22T23:26:23.753Z,13.15
2022-10-22T23:28:50.799Z,12.95
2022-10-22T23:31:19.719Z,12.92
2022-10-22T23:33:46.938Z,12.37
2022-10-22T23:36:14.205Z,13.12
2022-10-22T23:38:41.601Z,12.95
2022-10-22T23:41:08.631Z,12.60
2022-10-22T23:43:37.870Z,12.66
2022-10-22T23:46:06.342Z,12.32
2022-10-22T23:48:33.347Z,12.92
2022-10-22T23:51:06.932Z,13.10
2022-10-22T23:53:34.009Z,13.00
2022-10-22T23:56:09.347Z,12.61
2022-10-22T23:58:36.550Z,12.94
